createdAt,value
2023-05-17T00:01:08.194Z,4.50
2023-05-17T00:03:35.469Z,4.23
2023-05-17T00:06:24.632Z,4.40
2023-05-17T00:08:52.040Z,4.97
2023-05-17T00:11:20.710Z,3.80
2023-05-17T00:13:48.203Z,4.60
2023-05-17T00:20:11.211Z,4.73
2023-05-17T00:22:38.573Z,5.30
2023-05-17T00:25:06.262Z,5.20
2023-05-17T00:27:34.914Z,4.47
2023-05-17T00:30:02.208Z,3.90
2023-05-17T00:32:29.461Z,5.03
2023-05-17T00:34:56.897Z,5.00
2023-05-17T00:40:14.482Z,4.57
2023-05-17T00:42:43.402Z,4.50
2023-05-17T00:52:40.666Z,5.47
2023-05-17T00:55:08.257Z,4.47
2023-05-17T00:57:36.016Z,5.07
2023-05-17T01:00:05.257Z,4.37
2023-05-17T01:02:32.738Z,4.60
2023-05-17T01:07:49.647Z,4.27
2023-05-17T01:10:17.108Z,4.20
2023-05-17T01:12:48.500Z,4.33
2023-05-17T01:22:33.406Z,4.87
2023-05-17T01:25:05.310Z,3.97
2023-05-17T01:27:34.700Z,4.50
2023-05-17T01:30:02.188Z,4.33
2023-05-17T01:32:29.990Z,4.40
2023-05-17T01:37:46.531Z,4.33
2023-05-17T01:40:15.016Z,4.17
2023-05-17T01:42:44.180Z,5.20
2023-05-17T01:51:59.087Z,4.33
2023-05-17T01:54:29.117Z,4.00
2023-05-17T01:56:58.266Z,5.17
2023-05-17T01:59:28.176Z,4.20
2023-05-17T02:01:56.743Z,4.30
2023-05-17T02:04:46.680Z,3.90
2023-05-17T02:07:14.027Z,4.57
2023-05-17T02:09:41.777Z,4.27
2023-05-17T02:12:09.262Z,5.70
2023-05-17T02:21:22.961Z,4.97
2023-05-17T02:23:50.225Z,4.97
2023-05-17T02:26:19.542Z,4.40
2023-05-17T02:28:46.833Z,4.27
2023-05-17T02:31:14.361Z,4.40
2023-05-17T02:39:13.993Z,4.13
2023-05-17T02:41:41.489Z,4.73
2023-05-17T02:48:02.912Z,4.50
2023-05-17T02:50:30.248Z,4.30
2023-05-17T02:52:58.339Z,4.53
2023-05-17T02:55:27.158Z,4.97
2023-05-17T02:57:54.810Z,3.83
2023-05-17T03:00:22.934Z,4.10
2023-05-17T03:05:34.488Z,5.53
2023-05-17T03:08:01.855Z,4.07
2023-05-17T03:10:30.676Z,4.97
2023-05-17T03:12:59.124Z,4.20
2023-05-17T03:15:31.074Z,3.83
2023-05-17T03:18:26.296Z,4.27
2023-05-17T03:27:41.296Z,5.23
2023-05-17T03:30:09.350Z,4.37
2023-05-17T03:32:38.664Z,4.70
2023-05-17T03:35:06.594Z,4.40
2023-05-17T03:40:24.760Z,4.07
2023-05-17T03:42:53.667Z,4.57
2023-05-17T03:45:21.390Z,4.10
2023-05-17T03:47:48.855Z,4.70
2023-05-17T03:50:16.331Z,4.07
2023-05-17T04:00:08.121Z,4.17
2023-05-17T04:02:43.632Z,4.57
2023-05-17T04:05:12.106Z,4.23
2023-05-17T04:08:04.268Z,4.23
2023-05-17T04:10:31.718Z,4.00
2023-05-17T04:12:59.086Z,3.73
2023-05-17T04:15:26.638Z,3.87
2023-05-17T04:17:55.700Z,4.47
2023-05-17T04:20:23.073Z,4.63
2023-05-17T04:26:00.991Z,3.87
2023-05-17T04:28:30.433Z,3.93
2023-05-17T04:30:58.812Z,3.57
2023-05-17T04:40:39.314Z,3.87
2023-05-17T04:43:06.892Z,3.63
2023-05-17T04:45:34.774Z,3.93
2023-05-17T04:48:02.210Z,3.33
2023-05-17T04:50:29.951Z,4.50
2023-05-17T04:58:37.305Z,3.43
2023-05-17T05:01:06.105Z,2.73
2023-05-17T05:10:18.454Z,3.77
2023-05-17T05:12:45.926Z,4.70
2023-05-17T05:15:17.613Z,4.20
2023-05-17T05:17:51.956Z,3.97
2023-05-17T05:20:20.908Z,3.93
2023-05-17T05:23:08.800Z,3.53
2023-05-17T05:25:39.055Z,4.47
2023-05-17T05:28:07.394Z,4.30
2023-05-17T05:30:43.903Z,4.20
2023-05-17T05:37:00.023Z,3.90
2023-05-17T05:39:27.437Z,3.87
2023-05-17T05:41:54.852Z,3.27
2023-05-17T05:44:24.570Z,3.73
2023-05-17T05:46:54.557Z,3.63
2023-05-17T05:49:21.837Z,3.67
2023-05-17T05:51:49.465Z,4.20
2023-05-17T05:54:18.079Z,3.47
2023-05-17T05:56:45.529Z,3.53
2023-05-17T05:59:14.878Z,4.10
2023-05-17T06:01:42.168Z,3.57
2023-05-17T06:04:10.809Z,3.93
2023-05-17T06:06:38.255Z,3.60
2023-05-17T06:09:05.690Z,3.97
2023-05-17T06:11:32.948Z,3.43
2023-05-17T06:14:00.364Z,3.13
2023-05-17T06:16:27.744Z,4.67
2023-05-17T06:18:55.079Z,4.27
2023-05-17T06:21:23.802Z,4.60
2023-05-17T06:23:51.063Z,3.40
2023-05-17T06:26:18.386Z,4.20
2023-05-17T06:28:45.645Z,3.33
2023-05-17T06:31:15.694Z,3.53
2023-05-17T06:33:43.074Z,2.97
2023-05-17T06:36:10.383Z,4.07
2023-05-17T06:38:39.532Z,4.63
2023-05-17T06:41:06.932Z,3.47
2023-05-17T06:43:35.751Z,3.73
2023-05-17T06:46:04.866Z,3.83
2023-05-17T06:48:32.257Z,3.37
2023-05-17T06:50:59.679Z,3.17
2023-05-17T07:00:09.035Z,3.67
2023-05-17T07:02:36.564Z,4.67
2023-05-17T07:05:03.986Z,4.30
2023-05-17T07:07:41.052Z,4.87
2023-05-17T07:10:08.774Z,4.80
2023-05-17T07:12:36.023Z,4.07
2023-05-17T07:15:03.325Z,4.17
2023-05-17T07:17:31.946Z,4.20
2023-05-17T07:19:59.478Z,4.17
2023-05-17T07:22:26.950Z,4.93
2023-05-17T07:24:54.277Z,4.73
2023-05-17T07:27:21.522Z,3.47
2023-05-17T07:29:48.812Z,4.47
2023-05-17T07:32:16.110Z,4.47
2023-05-17T07:34:45.254Z,4.83
2023-05-17T07:42:50.724Z,4.60
2023-05-17T07:45:18.101Z,3.53
2023-05-17T07:54:40.969Z,4.27
2023-05-17T07:57:08.332Z,4.07
2023-05-17T07:59:35.770Z,7.17
2023-05-17T08:02:05.753Z,3.63
2023-05-17T08:10:15.993Z,4.40
2023-05-17T08:12:43.597Z,3.63
2023-05-17T08:23:30.932Z,3.13
2023-05-17T08:25:59.781Z,2.63
2023-05-17T08:28:27.492Z,2.57
2023-05-17T08:30:54.726Z,3.23
2023-05-17T08:33:22.141Z,2.47
2023-05-17T08:38:37.143Z,2.80
2023-05-17T08:41:06.505Z,2.67
2023-05-17T08:43:34.486Z,2.37
2023-05-17T08:46:27.652Z,2.30
2023-05-17T08:49:15.581Z,2.30
2023-05-17T08:52:08.175Z,2.60
2023-05-17T08:54:36.090Z,2.57
2023-05-17T08:57:08.415Z,2.40
2023-05-17T09:08:06.033Z,2.20
2023-05-17T09:10:33.371Z,3.10
2023-05-17T09:13:02.044Z,2.97
2023-05-17T09:15:29.286Z,3.20
2023-05-17T09:21:46.457Z,2.37
2023-05-17T09:24:14.068Z,2.60
2023-05-17T09:26:42.098Z,2.70
2023-05-17T09:29:11.559Z,3.07
2023-05-17T09:31:39.288Z,2.97
2023-05-17T09:34:06.759Z,2.73
2023-05-17T09:36:36.057Z,2.33
2023-05-17T09:39:04.740Z,2.03
2023-05-17T09:41:32.415Z,2.37
2023-05-17T09:44:00.736Z,4.03
2023-05-17T09:46:50.016Z,2.93
2023-05-17T09:49:40.191Z,2.27
2023-05-17T09:52:26.284Z,2.77
2023-05-17T09:54:55.734Z,3.13
2023-05-17T09:57:23.383Z,3.77
2023-05-17T09:59:51.235Z,2.73
2023-05-17T10:02:21.097Z,3.33
2023-05-17T10:04:49.421Z,2.47
2023-05-17T10:07:38.941Z,2.73
2023-05-17T10:10:08.309Z,2.07
2023-05-17T10:12:37.659Z,2.13
2023-05-17T10:15:06.051Z,2.03
2023-05-17T10:32:59.473Z,2.47
2023-05-17T10:38:14.981Z,2.03
2023-05-17T10:40:43.266Z,3.83
2023-05-17T10:43:11.299Z,2.10
2023-05-17T10:45:38.725Z,2.17
2023-05-17T10:48:08.060Z,2.30
2023-05-17T10:51:01.018Z,2.27
2023-05-17T10:54:11.366Z,2.13
2023-05-17T10:56:43.503Z,2.27
2023-05-17T10:59:21.479Z,2.53
2023-05-17T11:01:52.995Z,2.33
2023-05-17T11:04:25.828Z,1.83
2023-05-17T11:06:54.224Z,2.33
2023-05-17T11:09:22.763Z,2.90
2023-05-17T11:14:26.069Z,2.10
2023-05-17T11:19:57.983Z,2.50
2023-05-17T11:22:27.217Z,2.63
2023-05-17T11:32:28.347Z,2.60
2023-05-17T11:34:56.034Z,2.77
2023-05-17T11:37:28.610Z,2.33
2023-05-17T11:40:02.501Z,2.77
2023-05-17T11:42:29.899Z,2.67
2023-05-17T11:48:39.413Z,2.37
2023-05-17T11:53:57.928Z,2.47
2023-05-17T12:00:13.607Z,2.17
2023-05-17T12:02:40.911Z,2.20
2023-05-17T12:05:09.380Z,2.00
2023-05-17T12:07:36.757Z,2.30
2023-05-17T12:13:11.474Z,1.87
2023-05-17T12:18:14.768Z,2.00
2023-05-17T12:20:53.764Z,3.27
2023-05-17T12:23:26.457Z,1.97
2023-05-17T12:32:14.442Z,2.43
2023-05-17T12:34:41.781Z,2.57
2023-05-17T12:40:00.457Z,1.77
2023-05-17T12:42:27.872Z,2.57
2023-05-17T12:45:14.071Z,2.63
2023-05-17T12:47:43.761Z,1.57
2023-05-17T12:50:12.134Z,2.10
2023-05-17T12:52:41.247Z,2.23
2023-05-17T13:01:54.098Z,2.23
2023-05-17T13:04:29.621Z,2.07
2023-05-17T13:06:58.343Z,2.40
2023-05-17T13:09:27.168Z,2.70
2023-05-17T13:11:55.317Z,2.33
2023-05-17T13:17:12.898Z,2.27
2023-05-17T13:19:41.940Z,2.80
2023-05-17T13:22:09.857Z,2.10
2023-05-17T13:28:28.339Z,2.40
2023-05-17T13:36:28.874Z,3.13
2023-05-17T13:38:56.442Z,2.80
2023-05-17T13:41:23.815Z,2.70
2023-05-17T13:43:54.025Z,3.07
2023-05-17T13:51:48.857Z,2.47
2023-05-17T13:54:16.215Z,2.47
2023-05-17T13:56:43.981Z,2.80
2023-05-17T13:59:30.210Z,2.57
2023-05-17T14:01:57.588Z,3.43
2023-05-17T14:04:25.007Z,2.20
2023-05-17T14:06:55.150Z,3.13
2023-05-17T14:16:08.045Z,2.57
2023-05-17T14:18:35.514Z,3.63
2023-05-17T14:21:02.956Z,2.70
2023-05-17T14:23:31.657Z,2.30
2023-05-17T14:25:58.957Z,3.37
2023-05-17T14:28:26.306Z,2.40
2023-05-17T14:30:59.718Z,2.30
2023-05-17T14:33:27.259Z,2.27
2023-05-17T14:35:55.182Z,2.80
2023-05-17T14:38:22.450Z,1.87
2023-05-17T14:40:51.333Z,2.37
2023-05-17T14:43:34.209Z,2.37
2023-05-17T14:46:01.649Z,2.17
2023-05-17T14:48:28.951Z,2.33
2023-05-17T14:50:56.312Z,2.43
2023-05-17T14:57:12.015Z,2.30
2023-05-17T14:59:39.451Z,3.57
2023-05-17T15:02:07.280Z,2.70
2023-05-17T15:04:34.684Z,2.23
2023-05-17T15:07:02.112Z,2.63
2023-05-17T15:09:29.574Z,2.67
2023-05-17T15:11:57.051Z,2.33
2023-05-17T15:14:25.640Z,3.13
2023-05-17T15:16:53.412Z,2.50
2023-05-17T15:19:20.737Z,2.90
2023-05-17T15:21:48.161Z,2.93
2023-05-17T15:24:17.116Z,2.13
2023-05-17T15:29:29.476Z,3.17
2023-05-17T15:31:56.771Z,2.40
2023-05-17T15:34:24.524Z,2.27
2023-05-17T15:36:51.887Z,2.97
2023-05-17T15:39:19.148Z,2.60
2023-05-17T15:44:56.060Z,3.37
2023-05-17T15:47:45.027Z,3.30
2023-05-17T15:50:13.769Z,2.17
2023-05-17T15:52:41.132Z,2.37
2023-05-17T15:55:08.926Z,3.20
2023-05-17T15:57:42.432Z,3.23
2023-05-17T16:00:10.498Z,3.13
2023-05-17T16:02:37.804Z,2.67
2023-05-17T16:05:05.420Z,2.60
2023-05-17T16:07:34.019Z,2.63
2023-05-17T16:10:01.341Z,2.80
2023-05-17T16:12:28.621Z,2.90
2023-05-17T16:14:56.033Z,2.07
2023-05-17T16:17:23.324Z,2.67
2023-05-17T16:19:50.696Z,2.53
2023-05-17T16:22:18.052Z,2.63
2023-05-17T16:24:46.647Z,2.83
2023-05-17T16:27:13.956Z,2.80
2023-05-17T16:29:41.221Z,2.90
2023-05-17T16:32:08.658Z,3.10
2023-05-17T16:34:36.030Z,3.20
2023-05-17T16:37:03.319Z,4.10
2023-05-17T16:39:30.689Z,2.80
2023-05-17T16:42:01.456Z,2.40
2023-05-17T16:44:28.774Z,2.63
2023-05-17T16:46:56.236Z,2.70
2023-05-17T16:49:23.603Z,2.30
2023-05-17T16:51:50.931Z,2.73
2023-05-17T16:54:18.280Z,2.47
2023-05-17T16:56:45.521Z,2.60
2023-05-17T16:59:14.349Z,3.00
2023-05-17T17:01:41.766Z,2.13
2023-05-17T17:04:09.099Z,2.60
2023-05-17T17:06:36.410Z,2.43
2023-05-17T17:09:04.890Z,2.47
2023-05-17T17:11:33.131Z,2.07
2023-05-17T17:14:00.416Z,2.00
2023-05-17T17:16:29.200Z,2.67
2023-05-17T17:18:56.620Z,3.20
2023-05-17T17:21:23.965Z,2.13
2023-05-17T17:23:51.427Z,2.70
2023-05-17T17:26:18.704Z,2.80
2023-05-17T17:28:46.060Z,2.90
2023-05-17T17:31:13.450Z,2.60
2023-05-17T17:33:42.267Z,2.90
2023-05-17T17:36:09.744Z,2.47
2023-05-17T17:38:36.977Z,2.67
2023-05-17T17:41:04.321Z,3.00
2023-05-17T17:43:31.624Z,3.20
2023-05-17T17:45:58.888Z,2.70
2023-05-17T17:48:26.226Z,2.70
2023-05-17T17:50:54.809Z,2.50
2023-05-17T17:53:22.315Z,2.30
2023-05-17T17:55:49.564Z,2.53
2023-05-17T17:58:16.849Z,2.57
2023-05-17T18:00:44.265Z,2.70
2023-05-17T18:03:11.565Z,2.83
2023-05-17T18:05:39.022Z,2.73
2023-05-17T18:08:07.624Z,2.27
2023-05-17T18:10:34.913Z,3.33
2023-05-17T18:13:02.222Z,2.17
2023-05-17T18:15:29.566Z,3.10
2023-05-17T18:17:56.940Z,2.77
2023-05-17T18:20:24.299Z,2.40
2023-05-17T18:22:51.615Z,2.27
2023-05-17T18:25:20.298Z,2.27
2023-05-17T18:27:47.604Z,2.57
2023-05-17T18:30:14.968Z,2.13
2023-05-17T18:32:42.632Z,2.83
2023-05-17T18:35:10.392Z,2.90
2023-05-17T18:37:37.661Z,2.60
2023-05-17T18:40:05.298Z,2.17
2023-05-17T18:42:33.905Z,3.40
2023-05-17T18:45:01.269Z,2.30
2023-05-17T18:47:28.704Z,2.53
2023-05-17T18:49:56.017Z,2.97
2023-05-17T18:52:23.288Z,3.20
2023-05-17T18:54:50.970Z,2.73
2023-05-17T18:57:18.305Z,2.47
2023-05-17T18:59:46.935Z,2.53
2023-05-17T19:02:14.407Z,2.60
2023-05-17T19:04:41.766Z,2.47
2023-05-17T19:07:09.118Z,3.00
2023-05-17T19:09:36.433Z,2.33
2023-05-17T19:12:03.958Z,3.13
2023-05-17T19:14:31.237Z,2.60
2023-05-17T19:16:59.893Z,2.53
2023-05-17T19:19:27.318Z,2.53
2023-05-17T19:21:54.718Z,3.07
2023-05-17T19:24:21.987Z,2.50
2023-05-17T19:26:49.248Z,2.63
2023-05-17T19:29:16.525Z,2.40
2023-05-17T19:31:43.864Z,2.47
2023-05-17T19:34:12.564Z,2.23
2023-05-17T19:36:39.836Z,2.53
2023-05-17T19:39:07.180Z,2.60
2023-05-17T19:41:34.426Z,2.80
2023-05-17T19:44:01.680Z,2.67
2023-05-17T19:46:29.061Z,2.27
2023-05-17T19:48:56.328Z,2.53
2023-05-17T19:51:25.030Z,3.20
2023-05-17T19:53:53.505Z,2.77
2023-05-17T19:56:23.079Z,2.90
2023-05-17T19:58:50.405Z,2.60
2023-05-17T20:01:17.728Z,1.90
2023-05-17T20:03:45.129Z,2.50
2023-05-17T20:06:12.433Z,2.80
2023-05-17T20:08:41.111Z,2.60
2023-05-17T20:11:08.472Z,2.70
2023-05-17T20:13:35.810Z,2.40
2023-05-17T20:16:03.143Z,3.00
2023-05-17T20:18:30.457Z,3.03
2023-05-17T20:20:57.748Z,2.60
2023-05-17T20:23:25.053Z,2.80
2023-05-17T20:25:53.664Z,3.03
2023-05-17T20:28:20.917Z,2.50
2023-05-17T20:30:48.226Z,3.07
2023-05-17T20:33:15.590Z,3.33
2023-05-17T20:35:42.889Z,2.90
2023-05-17T20:38:10.131Z,2.77
2023-05-17T20:40:37.502Z,2.93
2023-05-17T20:43:06.914Z,2.60
2023-05-17T20:45:37.306Z,3.20
2023-05-17T20:48:04.628Z,2.20
2023-05-17T20:50:32.003Z,2.67
2023-05-17T20:52:59.333Z,2.50
2023-05-17T20:55:26.583Z,2.57
2023-05-17T20:57:53.919Z,2.70
2023-05-17T21:00:22.525Z,3.07
2023-05-17T21:02:50.088Z,2.60
2023-05-17T21:05:17.381Z,2.60
2023-05-17T21:07:44.716Z,2.50
2023-05-17T21:10:12.198Z,3.07
2023-05-17T21:12:39.551Z,2.73
2023-05-17T21:15:15.671Z,2.87
2023-05-17T21:17:45.947Z,2.70
2023-05-17T21:20:13.735Z,2.27
2023-05-17T21:22:41.098Z,2.63
2023-05-17T21:25:09.764Z,2.93
2023-05-17T21:27:36.990Z,3.00
2023-05-17T21:30:04.484Z,2.50
2023-05-17T21:32:31.794Z,3.70
2023-05-17T21:35:00.458Z,2.60
2023-05-17T21:37:27.831Z,2.73
2023-05-17T21:39:55.087Z,2.77
2023-05-17T21:42:22.402Z,2.40
2023-05-17T21:44:49.708Z,2.03
2023-05-17T21:47:16.962Z,2.50
2023-05-17T21:49:44.517Z,2.17
2023-05-17T21:52:13.261Z,3.60
2023-05-17T21:54:40.561Z,2.50
2023-05-17T21:57:07.799Z,2.17
2023-05-17T21:59:35.157Z,2.30
2023-05-17T22:02:02.488Z,2.50
2023-05-17T22:04:29.727Z,2.17
2023-05-17T22:06:57.114Z,2.20
2023-05-17T22:09:25.724Z,2.13
2023-05-17T22:11:53.074Z,2.37
2023-05-17T22:14:20.314Z,2.67
2023-05-17T22:16:47.598Z,2.73
2023-05-17T22:19:15.071Z,2.50
2023-05-17T22:21:42.354Z,3.60
2023-05-17T22:24:09.938Z,2.30
2023-05-17T22:26:38.540Z,2.20
2023-05-17T22:29:05.960Z,2.77
2023-05-17T22:31:33.326Z,2.50
2023-05-17T22:34:03.463Z,2.27
2023-05-17T22:36:30.933Z,2.47
2023-05-17T22:38:58.337Z,2.37
2023-05-17T22:41:25.971Z,2.70
2023-05-17T22:43:54.593Z,3.30
2023-05-17T22:46:21.890Z,2.50
2023-05-17T22:48:49.147Z,2.60
2023-05-17T22:51:16.595Z,2.57
2023-05-17T22:53:43.835Z,2.60
2023-05-17T22:56:11.533Z,2.80
2023-05-17T22:58:38.859Z,2.63
2023-05-17T23:01:07.496Z,2.80
2023-05-17T23:03:34.912Z,3.83
2023-05-17T23:06:02.617Z,2.60
2023-05-17T23:08:30.099Z,2.73
2023-05-17T23:10:57.400Z,2.63
2023-05-17T23:13:29.737Z,2.97
2023-05-17T23:15:57.065Z,2.37
2023-05-17T23:18:25.792Z,2.20
2023-05-17T23:20:53.083Z,3.00
2023-05-17T23:23:38.599Z,2.43
2023-05-17T23:35:29.148Z,2.40
2023-05-17T23:43:21.379Z,2.60
2023-05-17T23:45:48.757Z,1.90
2023-05-17T23:48:16.137Z,2.07
2023-05-17T23:50:44.973Z,2.60
2023-05-17T23:53:12.470Z,2.03
2023-05-17T23:55:39.732Z,2.47
2023-05-17T23:58:07.038Z,2.37
